sensor_id;sensor_type;location;lat;lon;timestamp;temperature;humidity
48579;DHT22;34357;51.948;6.132;2024-02-16T00:01:20;11.60;85.10
48579;DHT22;34357;51.948;6.132;2024-02-16T00:03:46;11.60;84.90
48579;DHT22;34357;51.948;6.132;2024-02-16T00:06:12;11.60;84.70
48579;DHT22;34357;51.948;6.132;2024-02-16T00:08:38;11.60;84.90
48579;DHT22;34357;51.948;6.132;2024-02-16T00:11:05;11.60;84.90
48579;DHT22;34357;51.948;6.132;2024-02-16T00:13:30;11.60;84.80
48579;DHT22;34357;51.948;6.132;2024-02-16T00:15:56;11.60;84.90
48579;DHT22;34357;51.948;6.132;2024-02-16T00:18:22;11.50;85.10
48579;DHT22;34357;51.948;6.132;2024-02-16T00:20:49;11.60;84.70
48579;DHT22;34357;51.948;6.132;2024-02-16T00:23:15;11.50;85.20
48579;DHT22;34357;51.948;6.132;2024-02-16T00:25:41;11.50;85.10
48579;DHT22;34357;51.948;6.132;2024-02-16T00:28:08;11.50;85.10
48579;DHT22;34357;51.948;6.132;2024-02-16T00:30:34;11.50;85.30
48579;DHT22;34357;51.948;6.132;2024-02-16T00:32:59;11.40;85.30
48579;DHT22;34357;51.948;6.132;2024-02-16T00:35:26;11.40;85.10
48579;DHT22;34357;51.948;6.132;2024-02-16T00:37:52;11.40;85.10
48579;DHT22;34357;51.948;6.132;2024-02-16T00:40:18;11.40;85.10
48579;DHT22;34357;51.948;6.132;2024-02-16T00:42:44;11.50;84.80
48579;DHT22;34357;51.948;6.132;2024-02-16T00:45:10;11.40;84.90
48579;DHT22;34357;51.948;6.132;2024-02-16T00:47:35;11.50;84.70
48579;DHT22;34357;51.948;6.132;2024-02-16T00:50:01;11.50;84.50
48579;DHT22;34357;51.948;6.132;2024-02-16T00:52:29;11.60;84.20
48579;DHT22;34357;51.948;6.132;2024-02-16T00:54:54;11.50;84.40
48579;DHT22;34357;51.948;6.132;2024-02-16T00:57:20;11.50;84.50
48579;DHT22;34357;51.948;6.132;2024-02-16T00:59:46;11.40;84.50
48579;DHT22;34357;51.948;6.132;2024-02-16T01:02:12;11.50;84.30
48579;DHT22;34357;51.948;6.132;2024-02-16T01:04:38;11.40;84.50
48579;DHT22;34357;51.948;6.132;2024-02-16T01:07:04;11.40;84.50
48579;DHT22;34357;51.948;6.132;2024-02-16T01:09:30;11.40;84.60
48579;DHT22;34357;51.948;6.132;2024-02-16T01:11:55;11.40;84.80
48579;DHT22;34357;51.948;6.132;2024-02-16T01:14:21;11.30;84.80
48579;DHT22;34357;51.948;6.132;2024-02-16T01:16:47;11.30;84.80
48579;DHT22;34357;51.948;6.132;2024-02-16T01:19:12;11.40;84.60
48579;DHT22;34357;51.948;6.132;2024-02-16T01:21:38;11.40;84.40
48579;DHT22;34357;51.948;6.132;2024-02-16T01:24:05;11.40;84.40
48579;DHT22;34357;51.948;6.132;2024-02-16T01:26:32;11.40;84.40
48579;DHT22;34357;51.948;6.132;2024-02-16T01:28:58;11.40;84.30
48579;DHT22;34357;51.948;6.132;2024-02-16T01:31:24;11.40;84.10
48579;DHT22;34357;51.948;6.132;2024-02-16T01:33:50;11.50;83.90
48579;DHT22;34357;51.948;6.132;2024-02-16T01:36:18;11.40;84.00
48579;DHT22;34357;51.948;6.132;2024-02-16T01:38:44;11.40;84.10
48579;DHT22;34357;51.948;6.132;2024-02-16T01:41:10;11.50;83.90
48579;DHT22;34357;51.948;6.132;2024-02-16T01:43:36;11.50;83.80
48579;DHT22;34357;51.948;6.132;2024-02-16T01:46:02;11.50;83.80
48579;DHT22;34357;51.948;6.132;2024-02-16T01:48:28;11.50;83.70
48579;DHT22;34357;51.948;6.132;2024-02-16T01:50:54;11.60;83.30
48579;DHT22;34357;51.948;6.132;2024-02-16T01:53:20;11.50;83.40
48579;DHT22;34357;51.948;6.132;2024-02-16T01:55:47;11.50;83.30
48579;DHT22;34357;51.948;6.132;2024-02-16T01:58:12;11.50;83.40
48579;DHT22;34357;51.948;6.132;2024-02-16T02:00:39;11.50;83.30
48579;DHT22;34357;51.948;6.132;2024-02-16T02:03:06;11.50;83.30
48579;DHT22;34357;51.948;6.132;2024-02-16T02:05:32;11.50;83.10
48579;DHT22;34357;51.948;6.132;2024-02-16T02:07:58;11.50;82.90
48579;DHT22;34357;51.948;6.132;2024-02-16T02:10:24;11.50;83.10
48579;DHT22;34357;51.948;6.132;2024-02-16T02:12:50;11.50;83.20
48579;DHT22;34357;51.948;6.132;2024-02-16T02:15:15;11.50;83.20
48579;DHT22;34357;51.948;6.132;2024-02-16T02:17:41;11.40;83.30
48579;DHT22;34357;51.948;6.132;2024-02-16T02:20:07;11.40;83.40
48579;DHT22;34357;51.948;6.132;2024-02-16T02:22:37;11.50;83.10
48579;DHT22;34357;51.948;6.132;2024-02-16T02:25:03;11.50;82.90
48579;DHT22;34357;51.948;6.132;2024-02-16T02:27:30;11.50;82.80
48579;DHT22;34357;51.948;6.132;2024-02-16T02:29:56;11.40;82.80
48579;DHT22;34357;51.948;6.132;2024-02-16T02:32:22;11.40;82.90
48579;DHT22;34357;51.948;6.132;2024-02-16T02:34:48;11.60;82.30
48579;DHT22;34357;51.948;6.132;2024-02-16T02:37:13;11.60;82.00
48579;DHT22;34357;51.948;6.132;2024-02-16T02:39:39;11.50;82.20
48579;DHT22;34357;51.948;6.132;2024-02-16T02:42:05;11.50;82.40
48579;DHT22;34357;51.948;6.132;2024-02-16T02:44:32;11.50;82.30
48579;DHT22;34357;51.948;6.132;2024-02-16T02:46:58;11.50;82.10
48579;DHT22;34357;51.948;6.132;2024-02-16T02:49:24;11.50;82.30
48579;DHT22;34357;51.948;6.132;2024-02-16T02:51:50;11.40;82.80
48579;DHT22;34357;51.948;6.132;2024-02-16T02:54:15;11.40;82.80
48579;DHT22;34357;51.948;6.132;2024-02-16T02:56:41;11.60;82.20
48579;DHT22;34357;51.948;6.132;2024-02-16T02:59:07;11.60;82.20
48579;DHT22;34357;51.948;6.132;2024-02-16T03:01:34;11.50;82.20
48579;DHT22;34357;51.948;6.132;2024-02-16T03:04:01;11.50;82.40
48579;DHT22;34357;51.948;6.132;2024-02-16T03:06:26;11.40;82.70
48579;DHT22;34357;51.948;6.132;2024-02-16T03:08:52;11.40;83.00
48579;DHT22;34357;51.948;6.132;2024-02-16T03:11:19;11.40;83.10
48579;DHT22;34357;51.948;6.132;2024-02-16T03:13:45;11.40;83.00
48579;DHT22;34357;51.948;6.132;2024-02-16T03:16:11;11.40;82.90
48579;DHT22;34357;51.948;6.132;2024-02-16T03:18:36;11.40;83.00
48579;DHT22;34357;51.948;6.132;2024-02-16T03:21:02;11.50;82.70
48579;DHT22;34357;51.948;6.132;2024-02-16T03:23:28;11.40;82.90
48579;DHT22;34357;51.948;6.132;2024-02-16T03:25:54;11.40;83.00
48579;DHT22;34357;51.948;6.132;2024-02-16T03:28:20;11.40;83.00
48579;DHT22;34357;51.948;6.132;2024-02-16T03:30:46;11.50;82.70
48579;DHT22;34357;51.948;6.132;2024-02-16T03:33:12;11.50;82.60
48579;DHT22;34357;51.948;6.132;2024-02-16T03:35:41;11.50;82.60
48579;DHT22;34357;51.948;6.132;2024-02-16T03:38:06;11.40;82.70
48579;DHT22;34357;51.948;6.132;2024-02-16T03:40:32;11.50;82.70
48579;DHT22;34357;51.948;6.132;2024-02-16T03:42:59;11.50;82.80
48579;DHT22;34357;51.948;6.132;2024-02-16T03:45:24;11.50;82.90
48579;DHT22;34357;51.948;6.132;2024-02-16T03:47:52;11.50;82.60
48579;DHT22;34357;51.948;6.132;2024-02-16T03:50:19;11.60;82.30
48579;DHT22;34357;51.948;6.132;2024-02-16T03:52:45;11.60;82.30
48579;DHT22;34357;51.948;6.132;2024-02-16T03:55:11;11.60;82.40
48579;DHT22;34357;51.948;6.132;2024-02-16T03:57:37;11.50;82.60
48579;DHT22;34357;51.948;6.132;2024-02-16T04:00:04;11.40;82.70
48579;DHT22;34357;51.948;6.132;2024-02-16T04:02:39;11.40;83.10
48579;DHT22;34357;51.948;6.132;2024-02-16T04:05:05;11.30;83.30
48579;DHT22;34357;51.948;6.132;2024-02-16T04:07:30;11.30;83.40
48579;DHT22;34357;51.948;6.132;2024-02-16T04:09:56;11.30;83.50
48579;DHT22;34357;51.948;6.132;2024-02-16T04:12:22;11.30;83.60
48579;DHT22;34357;51.948;6.132;2024-02-16T04:14:47;11.30;83.50
48579;DHT22;34357;51.948;6.132;2024-02-16T04:17:13;11.40;83.00
48579;DHT22;34357;51.948;6.132;2024-02-16T04:19:39;11.40;83.20
48579;DHT22;34357;51.948;6.132;2024-02-16T04:22:04;11.40;83.00
48579;DHT22;34357;51.948;6.132;2024-02-16T04:24:30;11.40;82.90
48579;DHT22;34357;51.948;6.132;2024-02-16T04:26:56;11.40;83.00
48579;DHT22;34357;51.948;6.132;2024-02-16T04:29:21;11.40;82.70
48579;DHT22;34357;51.948;6.132;2024-02-16T04:31:47;11.40;82.80
48579;DHT22;34357;51.948;6.132;2024-02-16T04:34:13;11.40;83.00
48579;DHT22;34357;51.948;6.132;2024-02-16T04:36:39;11.40;83.20
48579;DHT22;34357;51.948;6.132;2024-02-16T04:39:05;11.30;83.10
48579;DHT22;34357;51.948;6.132;2024-02-16T04:41:31;11.30;83.30
48579;DHT22;34357;51.948;6.132;2024-02-16T04:43:57;11.20;83.50
48579;DHT22;34357;51.948;6.132;2024-02-16T04:46:23;11.20;83.50
48579;DHT22;34357;51.948;6.132;2024-02-16T04:48:49;11.20;83.80
48579;DHT22;34357;51.948;6.132;2024-02-16T04:51:15;11.10;83.90
48579;DHT22;34357;51.948;6.132;2024-02-16T04:53:40;11.10;84.00
48579;DHT22;34357;51.948;6.132;2024-02-16T04:56:06;11.00;84.30
48579;DHT22;34357;51.948;6.132;2024-02-16T04:58:32;11.00;84.20
48579;DHT22;34357;51.948;6.132;2024-02-16T05:00:58;11.10;84.30
48579;DHT22;34357;51.948;6.132;2024-02-16T05:03:24;11.10;84.10
48579;DHT22;34357;51.948;6.132;2024-02-16T05:05:50;11.10;83.90
48579;DHT22;34357;51.948;6.132;2024-02-16T05:08:17;11.10;83.90
48579;DHT22;34357;51.948;6.132;2024-02-16T05:10:43;11.10;84.10
48579;DHT22;34357;51.948;6.132;2024-02-16T05:13:08;11.00;84.30
48579;DHT22;34357;51.948;6.132;2024-02-16T05:15:34;11.00;84.50
48579;DHT22;34357;51.948;6.132;2024-02-16T05:18:00;11.10;84.30
48579;DHT22;34357;51.948;6.132;2024-02-16T05:20:25;11.20;84.00
48579;DHT22;34357;51.948;6.132;2024-02-16T05:22:51;11.20;84.00
48579;DHT22;34357;51.948;6.132;2024-02-16T05:25:18;11.20;84.00
48579;DHT22;34357;51.948;6.132;2024-02-16T05:27:44;11.30;83.70
48579;DHT22;34357;51.948;6.132;2024-02-16T05:30:11;11.20;83.80
48579;DHT22;34357;51.948;6.132;2024-02-16T05:32:38;11.30;83.70
48579;DHT22;34357;51.948;6.132;2024-02-16T05:35:05;11.30;83.60
48579;DHT22;34357;51.948;6.132;2024-02-16T05:37:47;11.30;83.70
48579;DHT22;34357;51.948;6.132;2024-02-16T05:40:15;11.30;83.70
48579;DHT22;34357;51.948;6.132;2024-02-16T05:42:53;11.40;83.70
48579;DHT22;34357;51.948;6.132;2024-02-16T05:45:20;11.30;83.80
48579;DHT22;34357;51.948;6.132;2024-02-16T05:47:49;11.40;83.80
48579;DHT22;34357;51.948;6.132;2024-02-16T05:50:16;11.50;83.40
48579;DHT22;34357;51.948;6.132;2024-02-16T05:52:42;11.40;83.50
48579;DHT22;34357;51.948;6.132;2024-02-16T05:55:10;11.40;83.70
48579;DHT22;34357;51.948;6.132;2024-02-16T05:57:36;11.50;83.50
48579;DHT22;34357;51.948;6.132;2024-02-16T06:00:03;11.50;83.40
48579;DHT22;34357;51.948;6.132;2024-02-16T06:02:31;11.50;83.50
48579;DHT22;34357;51.948;6.132;2024-02-16T06:04:57;11.60;83.30
48579;DHT22;34357;51.948;6.132;2024-02-16T06:07:23;11.60;83.10
48579;DHT22;34357;51.948;6.132;2024-02-16T06:09:49;11.60;83.20
48579;DHT22;34357;51.948;6.132;2024-02-16T06:12:14;11.50;83.50
48579;DHT22;34357;51.948;6.132;2024-02-16T06:14:42;11.50;83.50
48579;DHT22;34357;51.948;6.132;2024-02-16T06:17:08;11.60;83.30
48579;DHT22;34357;51.948;6.132;2024-02-16T06:19:37;11.60;83.30
48579;DHT22;34357;51.948;6.132;2024-02-16T06:22:03;11.60;83.60
48579;DHT22;34357;51.948;6.132;2024-02-16T06:24:29;11.60;83.60
48579;DHT22;34357;51.948;6.132;2024-02-16T06:26:55;11.70;83.30
48579;DHT22;34357;51.948;6.132;2024-02-16T06:29:20;11.60;83.50
48579;DHT22;34357;51.948;6.132;2024-02-16T06:31:46;11.70;83.30
48579;DHT22;34357;51.948;6.132;2024-02-16T06:34:15;11.70;83.40
48579;DHT22;34357;51.948;6.132;2024-02-16T06:36:42;11.60;83.70
48579;DHT22;34357;51.948;6.132;2024-02-16T06:39:08;11.70;83.60
48579;DHT22;34357;51.948;6.132;2024-02-16T06:41:35;11.70;83.50
48579;DHT22;34357;51.948;6.132;2024-02-16T06:44:00;11.60;83.90
48579;DHT22;34357;51.948;6.132;2024-02-16T06:46:26;11.60;83.90
48579;DHT22;34357;51.948;6.132;2024-02-16T06:48:54;11.60;84.10
48579;DHT22;34357;51.948;6.132;2024-02-16T06:51:25;11.70;84.10
48579;DHT22;34357;51.948;6.132;2024-02-16T06:53:52;11.70;84.10
48579;DHT22;34357;51.948;6.132;2024-02-16T06:56:18;11.80;83.80
48579;DHT22;34357;51.948;6.132;2024-02-16T06:58:45;11.80;84.00
48579;DHT22;34357;51.948;6.132;2024-02-16T07:01:12;11.80;84.00
48579;DHT22;34357;51.948;6.132;2024-02-16T07:03:38;11.90;83.80
48579;DHT22;34357;51.948;6.132;2024-02-16T07:06:04;11.80;83.90
48579;DHT22;34357;51.948;6.132;2024-02-16T07:08:33;11.90;84.10
48579;DHT22;34357;51.948;6.132;2024-02-16T07:10:59;11.90;84.00
48579;DHT22;34357;51.948;6.132;2024-02-16T07:13:24;11.90;83.70
48579;DHT22;34357;51.948;6.132;2024-02-16T07:15:50;11.90;83.90
48579;DHT22;34357;51.948;6.132;2024-02-16T07:18:16;12.00;84.10
48579;DHT22;34357;51.948;6.132;2024-02-16T07:20:42;12.10;83.90
48579;DHT22;34357;51.948;6.132;2024-02-16T07:23:08;12.10;83.80
48579;DHT22;34357;51.948;6.132;2024-02-16T07:25:35;12.10;83.80
48579;DHT22;34357;51.948;6.132;2024-02-16T07:28:01;12.20;83.70
48579;DHT22;34357;51.948;6.132;2024-02-16T07:30:26;12.30;83.30
48579;DHT22;34357;51.948;6.132;2024-02-16T07:32:52;12.30;83.30
48579;DHT22;34357;51.948;6.132;2024-02-16T07:35:18;12.40;83.00
48579;DHT22;34357;51.948;6.132;2024-02-16T07:37:44;12.50;83.00
48579;DHT22;34357;51.948;6.132;2024-02-16T07:40:10;12.50;82.50
48579;DHT22;34357;51.948;6.132;2024-02-16T07:42:39;12.50;82.60
48579;DHT22;34357;51.948;6.132;2024-02-16T07:45:08;12.50;82.70
48579;DHT22;34357;51.948;6.132;2024-02-16T07:47:35;12.60;82.30
48579;DHT22;34357;51.948;6.132;2024-02-16T07:50:01;12.70;82.40
48579;DHT22;34357;51.948;6.132;2024-02-16T07:52:27;12.70;82.30
48579;DHT22;34357;51.948;6.132;2024-02-16T07:54:52;12.70;82.30
48579;DHT22;34357;51.948;6.132;2024-02-16T07:57:18;12.70;82.50
48579;DHT22;34357;51.948;6.132;2024-02-16T07:59:44;12.70;82.40
48579;DHT22;34357;51.948;6.132;2024-02-16T08:02:10;12.70;82.50
48579;DHT22;34357;51.948;6.132;2024-02-16T08:04:49;12.60;82.70
48579;DHT22;34357;51.948;6.132;2024-02-16T08:07:16;12.60;82.90
48579;DHT22;34357;51.948;6.132;2024-02-16T08:09:45;12.60;83.00
48579;DHT22;34357;51.948;6.132;2024-02-16T08:12:12;12.60;82.90
48579;DHT22;34357;51.948;6.132;2024-02-16T08:14:41;12.60;82.80
48579;DHT22;34357;51.948;6.132;2024-02-16T08:17:07;12.70;83.00
48579;DHT22;34357;51.948;6.132;2024-02-16T08:19:35;12.70;83.10
48579;DHT22;34357;51.948;6.132;2024-02-16T08:22:05;12.70;83.20
48579;DHT22;34357;51.948;6.132;2024-02-16T08:24:32;12.70;83.20
48579;DHT22;34357;51.948;6.132;2024-02-16T08:26:58;12.70;83.10
48579;DHT22;34357;51.948;6.132;2024-02-16T08:29:24;12.70;83.10
48579;DHT22;34357;51.948;6.132;2024-02-16T08:31:51;12.70;83.20
48579;DHT22;34357;51.948;6.132;2024-02-16T08:34:17;12.70;83.40
48579;DHT22;34357;51.948;6.132;2024-02-16T08:36:44;12.70;83.40
48579;DHT22;34357;51.948;6.132;2024-02-16T08:39:11;12.70;83.50
48579;DHT22;34357;51.948;6.132;2024-02-16T08:41:37;12.70;83.60
48579;DHT22;34357;51.948;6.132;2024-02-16T08:44:04;12.70;83.70
48579;DHT22;34357;51.948;6.132;2024-02-16T08:46:30;12.80;83.60
48579;DHT22;34357;51.948;6.132;2024-02-16T08:48:56;12.90;83.40
48579;DHT22;34357;51.948;6.132;2024-02-16T08:51:22;12.80;83.60
48579;DHT22;34357;51.948;6.132;2024-02-16T08:53:47;12.80;84.00
48579;DHT22;34357;51.948;6.132;2024-02-16T08:56:13;12.80;84.60
48579;DHT22;34357;51.948;6.132;2024-02-16T08:58:39;12.80;85.10
48579;DHT22;34357;51.948;6.132;2024-02-16T09:01:05;12.90;85.10
48579;DHT22;34357;51.948;6.132;2024-02-16T09:03:31;12.90;85.30
48579;DHT22;34357;51.948;6.132;2024-02-16T09:06:04;12.90;85.00
48579;DHT22;34357;51.948;6.132;2024-02-16T09:08:29;12.90;85.20
48579;DHT22;34357;51.948;6.132;2024-02-16T09:11:01;12.90;85.30
48579;DHT22;34357;51.948;6.132;2024-02-16T09:13:32;12.90;85.10
48579;DHT22;34357;51.948;6.132;2024-02-16T09:15:57;12.90;85.40
48579;DHT22;34357;51.948;6.132;2024-02-16T09:18:23;12.90;85.20
48579;DHT22;34357;51.948;6.132;2024-02-16T09:20:49;13.00;85.40
48579;DHT22;34357;51.948;6.132;2024-02-16T09:23:14;13.00;85.40
48579;DHT22;34357;51.948;6.132;2024-02-16T09:25:40;13.00;85.50
48579;DHT22;34357;51.948;6.132;2024-02-16T09:28:06;13.10;85.40
48579;DHT22;34357;51.948;6.132;2024-02-16T09:30:32;13.10;85.40
48579;DHT22;34357;51.948;6.132;2024-02-16T09:32:58;13.10;85.60
48579;DHT22;34357;51.948;6.132;2024-02-16T09:35:24;13.10;85.90
48579;DHT22;34357;51.948;6.132;2024-02-16T09:37:49;13.20;85.80
48579;DHT22;34357;51.948;6.132;2024-02-16T09:40:15;13.10;85.80
48579;DHT22;34357;51.948;6.132;2024-02-16T09:42:48;13.10;86.20
48579;DHT22;34357;51.948;6.132;2024-02-16T09:45:15;13.20;86.00
48579;DHT22;34357;51.948;6.132;2024-02-16T09:47:47;13.20;85.70
48579;DHT22;34357;51.948;6.132;2024-02-16T09:50:15;13.30;85.40
48579;DHT22;34357;51.948;6.132;2024-02-16T09:52:42;13.40;85.20
48579;DHT22;34357;51.948;6.132;2024-02-16T09:55:12;13.40;85.20
48579;DHT22;34357;51.948;6.132;2024-02-16T09:57:39;13.50;85.40
48579;DHT22;34357;51.948;6.132;2024-02-16T10:00:05;13.50;85.20
48579;DHT22;34357;51.948;6.132;2024-02-16T10:05:16;13.50;85.10
48579;DHT22;34357;51.948;6.132;2024-02-16T10:07:43;13.50;85.20
48579;DHT22;34357;51.948;6.132;2024-02-16T10:10:26;13.60;85.10
48579;DHT22;34357;51.948;6.132;2024-02-16T10:15:29;13.70;84.60
48579;DHT22;34357;51.948;6.132;2024-02-16T10:18:05;13.80;84.50
48579;DHT22;34357;51.948;6.132;2024-02-16T10:20:35;13.80;84.40
48579;DHT22;34357;51.948;6.132;2024-02-16T10:23:11;13.90;84.30
48579;DHT22;34357;51.948;6.132;2024-02-16T10:25:38;13.90;83.90
48579;DHT22;34357;51.948;6.132;2024-02-16T10:28:10;13.90;84.00
48579;DHT22;34357;51.948;6.132;2024-02-16T10:30:40;14.00;83.80
48579;DHT22;34357;51.948;6.132;2024-02-16T10:33:06;13.90;83.90
48579;DHT22;34357;51.948;6.132;2024-02-16T10:35:36;13.90;84.00
48579;DHT22;34357;51.948;6.132;2024-02-16T10:38:07;14.00;83.80
48579;DHT22;34357;51.948;6.132;2024-02-16T10:40:56;13.90;83.50
48579;DHT22;34357;51.948;6.132;2024-02-16T10:43:22;14.00;83.90
48579;DHT22;34357;51.948;6.132;2024-02-16T10:45:49;13.90;83.90
48579;DHT22;34357;51.948;6.132;2024-02-16T10:48:18;13.90;84.00
48579;DHT22;34357;51.948;6.132;2024-02-16T10:50:44;13.80;84.40
48579;DHT22;34357;51.948;6.132;2024-02-16T10:55:45;13.90;84.20
48579;DHT22;34357;51.948;6.132;2024-02-16T10:58:11;13.90;84.20
48579;DHT22;34357;51.948;6.132;2024-02-16T11:00:56;13.90;84.40
48579;DHT22;34357;51.948;6.132;2024-02-16T11:03:25;13.90;84.30
48579;DHT22;34357;51.948;6.132;2024-02-16T11:05:51;13.80;85.30
48579;DHT22;34357;51.948;6.132;2024-02-16T11:08:23;13.60;86.30
48579;DHT22;34357;51.948;6.132;2024-02-16T11:10:59;13.50;87.20
48579;DHT22;34357;51.948;6.132;2024-02-16T11:13:26;13.40;88.10
48579;DHT22;34357;51.948;6.132;2024-02-16T11:15:59;13.20;88.80
48579;DHT22;34357;51.948;6.132;2024-02-16T11:18:27;13.10;89.10
48579;DHT22;34357;51.948;6.132;2024-02-16T11:20:54;13.00;89.50
48579;DHT22;34357;51.948;6.132;2024-02-16T11:23:31;13.00;89.80
48579;DHT22;34357;51.948;6.132;2024-02-16T11:26:04;12.90;90.10
48579;DHT22;34357;51.948;6.132;2024-02-16T11:28:35;12.90;90.30
48579;DHT22;34357;51.948;6.132;2024-02-16T11:31:04;12.90;90.60
48579;DHT22;34357;51.948;6.132;2024-02-16T11:33:31;12.80;90.80
48579;DHT22;34357;51.948;6.132;2024-02-16T11:35:58;12.80;91.10
48579;DHT22;34357;51.948;6.132;2024-02-16T11:38:25;12.80;91.40
48579;DHT22;34357;51.948;6.132;2024-02-16T11:41:05;12.70;91.70
48579;DHT22;34357;51.948;6.132;2024-02-16T11:43:32;12.60;92.00
48579;DHT22;34357;51.948;6.132;2024-02-16T11:46:11;12.60;92.20
48579;DHT22;34357;51.948;6.132;2024-02-16T11:48:37;12.60;92.40
48579;DHT22;34357;51.948;6.132;2024-02-16T11:51:04;12.60;92.50
48579;DHT22;34357;51.948;6.132;2024-02-16T11:53:31;12.60;92.70
48579;DHT22;34357;51.948;6.132;2024-02-16T11:55:57;12.50;92.90
48579;DHT22;34357;51.948;6.132;2024-02-16T11:58:23;12.50;93.00
48579;DHT22;34357;51.948;6.132;2024-02-16T12:00:50;12.50;93.20
48579;DHT22;34357;51.948;6.132;2024-02-16T12:03:24;12.50;93.30
48579;DHT22;34357;51.948;6.132;2024-02-16T12:05:57;12.40;93.40
48579;DHT22;34357;51.948;6.132;2024-02-16T12:08:31;12.40;93.60
48579;DHT22;34357;51.948;6.132;2024-02-16T12:10:57;12.40;93.70
48579;DHT22;34357;51.948;6.132;2024-02-16T12:13:23;12.40;93.80
48579;DHT22;34357;51.948;6.132;2024-02-16T12:15:50;12.40;93.80
48579;DHT22;34357;51.948;6.132;2024-02-16T12:18:24;12.50;93.80
48579;DHT22;34357;51.948;6.132;2024-02-16T12:21:06;12.40;93.80
48579;DHT22;34357;51.948;6.132;2024-02-16T12:23:42;12.50;93.80
48579;DHT22;34357;51.948;6.132;2024-02-16T12:26:07;12.50;93.80
48579;DHT22;34357;51.948;6.132;2024-02-16T12:28:33;12.40;93.80
48579;DHT22;34357;51.948;6.132;2024-02-16T12:30:59;12.40;93.80
48579;DHT22;34357;51.948;6.132;2024-02-16T12:33:25;12.40;93.80
48579;DHT22;34357;51.948;6.132;2024-02-16T12:35:52;12.40;93.80
48579;DHT22;34357;51.948;6.132;2024-02-16T12:38:18;12.40;93.70
48579;DHT22;34357;51.948;6.132;2024-02-16T12:40:48;12.40;93.80
48579;DHT22;34357;51.948;6.132;2024-02-16T12:43:14;12.40;93.80
48579;DHT22;34357;51.948;6.132;2024-02-16T12:45:41;12.40;93.70
48579;DHT22;34357;51.948;6.132;2024-02-16T12:48:07;12.40;93.70
48579;DHT22;34357;51.948;6.132;2024-02-16T12:50:36;12.40;93.70
48579;DHT22;34357;51.948;6.132;2024-02-16T12:53:04;12.40;93.70
48579;DHT22;34357;51.948;6.132;2024-02-16T12:55:30;12.40;93.70
48579;DHT22;34357;51.948;6.132;2024-02-16T12:57:56;12.40;93.70
48579;DHT22;34357;51.948;6.132;2024-02-16T13:00:22;12.40;93.80
48579;DHT22;34357;51.948;6.132;2024-02-16T13:02:48;12.40;93.80
48579;DHT22;34357;51.948;6.132;2024-02-16T13:05:14;12.40;93.80
48579;DHT22;34357;51.948;6.132;2024-02-16T13:07:39;12.30;93.60
48579;DHT22;34357;51.948;6.132;2024-02-16T13:10:10;12.30;93.70
48579;DHT22;34357;51.948;6.132;2024-02-16T13:12:37;12.20;93.80
48579;DHT22;34357;51.948;6.132;2024-02-16T13:15:04;12.30;93.90
48579;DHT22;34357;51.948;6.132;2024-02-16T13:17:30;12.30;93.90
48579;DHT22;34357;51.948;6.132;2024-02-16T13:19:56;12.30;93.90
48579;DHT22;34357;51.948;6.132;2024-02-16T13:22:41;12.30;93.90
48579;DHT22;34357;51.948;6.132;2024-02-16T13:25:08;12.30;93.90
48579;DHT22;34357;51.948;6.132;2024-02-16T13:27:34;12.30;93.90
48579;DHT22;34357;51.948;6.132;2024-02-16T13:30:00;12.20;93.90
48579;DHT22;34357;51.948;6.132;2024-02-16T13:32:26;12.20;93.90
48579;DHT22;34357;51.948;6.132;2024-02-16T13:34:52;12.20;94.00
48579;DHT22;34357;51.948;6.132;2024-02-16T13:37:18;12.30;94.00
48579;DHT22;34357;51.948;6.132;2024-02-16T13:39:43;12.20;94.00
48579;DHT22;34357;51.948;6.132;2024-02-16T13:42:09;12.20;94.00
48579;DHT22;34357;51.948;6.132;2024-02-16T13:44:36;12.10;93.90
48579;DHT22;34357;51.948;6.132;2024-02-16T13:47:02;12.10;94.00
48579;DHT22;34357;51.948;6.132;2024-02-16T13:49:27;12.00;94.00
48579;DHT22;34357;51.948;6.132;2024-02-16T13:51:53;12.00;94.00
48579;DHT22;34357;51.948;6.132;2024-02-16T13:54:19;12.00;94.10
48579;DHT22;34357;51.948;6.132;2024-02-16T13:56:46;12.00;94.10
48579;DHT22;34357;51.948;6.132;2024-02-16T13:59:12;12.00;94.20
48579;DHT22;34357;51.948;6.132;2024-02-16T14:01:38;12.00;94.20
48579;DHT22;34357;51.948;6.132;2024-02-16T14:04:03;12.00;94.10
48579;DHT22;34357;51.948;6.132;2024-02-16T14:06:29;12.10;94.10
48579;DHT22;34357;51.948;6.132;2024-02-16T14:08:56;12.20;94.00
48579;DHT22;34357;51.948;6.132;2024-02-16T14:11:23;12.30;93.90
48579;DHT22;34357;51.948;6.132;2024-02-16T14:13:49;12.30;93.80
48579;DHT22;34357;51.948;6.132;2024-02-16T14:16:15;12.20;93.70
48579;DHT22;34357;51.948;6.132;2024-02-16T14:18:41;12.20;93.60
48579;DHT22;34357;51.948;6.132;2024-02-16T14:21:07;12.30;93.50
48579;DHT22;34357;51.948;6.132;2024-02-16T14:23:33;12.30;93.40
48579;DHT22;34357;51.948;6.132;2024-02-16T14:25:59;12.30;93.40
48579;DHT22;34357;51.948;6.132;2024-02-16T14:28:25;12.30;93.30
48579;DHT22;34357;51.948;6.132;2024-02-16T14:30:50;12.30;93.20
48579;DHT22;34357;51.948;6.132;2024-02-16T14:33:16;12.30;93.10
48579;DHT22;34357;51.948;6.132;2024-02-16T14:35:43;12.30;93.00
48579;DHT22;34357;51.948;6.132;2024-02-16T14:38:09;12.30;93.00
48579;DHT22;34357;51.948;6.132;2024-02-16T14:40:36;12.30;93.00
48579;DHT22;34357;51.948;6.132;2024-02-16T14:43:02;12.20;92.90
48579;DHT22;34357;51.948;6.132;2024-02-16T14:45:28;12.20;93.10
48579;DHT22;34357;51.948;6.132;2024-02-16T14:47:53;12.40;93.20
48579;DHT22;34357;51.948;6.132;2024-02-16T14:50:19;12.40;93.10
48579;DHT22;34357;51.948;6.132;2024-02-16T14:52:45;12.50;93.00
48579;DHT22;34357;51.948;6.132;2024-02-16T14:55:11;12.50;92.80
48579;DHT22;34357;51.948;6.132;2024-02-16T14:57:39;12.50;92.60
48579;DHT22;34357;51.948;6.132;2024-02-16T15:00:09;12.50;92.60
48579;DHT22;34357;51.948;6.132;2024-02-16T15:02:36;12.50;92.50
48579;DHT22;34357;51.948;6.132;2024-02-16T15:05:04;12.50;92.60
48579;DHT22;34357;51.948;6.132;2024-02-16T15:07:30;12.50;92.30
48579;DHT22;34357;51.948;6.132;2024-02-16T15:09:56;12.40;92.30
48579;DHT22;34357;51.948;6.132;2024-02-16T15:12:22;12.40;92.50
48579;DHT22;34357;51.948;6.132;2024-02-16T15:14:49;12.40;92.60
48579;DHT22;34357;51.948;6.132;2024-02-16T15:17:15;12.40;92.40
48579;DHT22;34357;51.948;6.132;2024-02-16T15:19:42;12.40;92.50
48579;DHT22;34357;51.948;6.132;2024-02-16T15:22:08;12.30;92.20
48579;DHT22;34357;51.948;6.132;2024-02-16T15:24:34;12.30;92.20
48579;DHT22;34357;51.948;6.132;2024-02-16T15:27:00;12.30;91.90
48579;DHT22;34357;51.948;6.132;2024-02-16T15:29:29;12.20;91.50
48579;DHT22;34357;51.948;6.132;2024-02-16T15:31:56;12.20;91.30
48579;DHT22;34357;51.948;6.132;2024-02-16T15:34:22;12.30;91.40
48579;DHT22;34357;51.948;6.132;2024-02-16T15:36:49;12.30;91.10